createdAt,value
2019-03-24T00:00:34.083Z,4.83
2019-03-24T00:03:03.429Z,4.57
2019-03-24T00:05:32.855Z,4.83
2019-03-24T00:08:02.284Z,5.00
2019-03-24T00:10:31.778Z,4.80
2019-03-24T00:13:01.137Z,4.40
2019-03-24T00:15:30.561Z,4.07
2019-03-24T00:17:59.941Z,4.37
2019-03-24T00:20:29.502Z,4.27
2019-03-24T00:22:58.930Z,3.83
2019-03-24T00:25:28.422Z,4.70
2019-03-24T00:27:57.794Z,5.07
2019-03-24T00:30:27.175Z,4.60
2019-03-24T00:32:56.559Z,4.40
2019-03-24T00:35:26.014Z,6.10
2019-03-24T00:37:55.361Z,4.27
2019-03-24T00:40:24.756Z,4.13
2019-03-24T00:42:54.218Z,4.43
2019-03-24T00:45:23.957Z,5.23
2019-03-24T00:47:53.311Z,4.57
2019-03-24T00:50:22.834Z,4.20
2019-03-24T00:52:52.349Z,4.60
2019-03-24T00:55:21.957Z,5.20
2019-03-24T00:57:51.303Z,4.60
2019-03-24T01:00:27.225Z,4.90
2019-03-24T01:02:56.595Z,5.70
2019-03-24T01:05:25.985Z,5.57
2019-03-24T01:07:55.741Z,4.03
2019-03-24T01:10:25.142Z,4.70
2019-03-24T01:12:54.481Z,3.67
2019-03-24T01:15:24.036Z,4.73
2019-03-24T01:17:53.468Z,4.07
2019-03-24T01:20:22.965Z,4.27
2019-03-24T01:22:52.404Z,5.30
2019-03-24T01:25:21.738Z,4.83
2019-03-24T01:27:51.138Z,5.07
2019-03-24T01:30:21.525Z,4.80
2019-03-24T01:32:51.047Z,5.13
2019-03-24T01:35:20.481Z,4.13
2019-03-24T01:37:49.986Z,4.13
2019-03-24T01:40:19.517Z,4.87
2019-03-24T01:42:48.869Z,4.27
2019-03-24T01:45:18.305Z,4.90
2019-03-24T01:47:47.767Z,4.90
2019-03-24T01:50:17.373Z,5.30
2019-03-24T01:52:46.732Z,4.47
2019-03-24T01:55:16.249Z,4.13
2019-03-24T01:57:45.691Z,3.97
2019-03-24T02:00:15.145Z,5.30
2019-03-24T02:02:44.598Z,4.10
2019-03-24T02:05:14.206Z,3.97
2019-03-24T02:07:43.550Z,6.30
2019-03-24T02:10:13.620Z,4.97
2019-03-24T02:12:43.054Z,4.10
2019-03-24T02:15:12.537Z,5.10
2019-03-24T02:17:41.985Z,5.80
2019-03-24T02:20:12.085Z,5.10
2019-03-24T02:22:41.441Z,4.97
2019-03-24T02:25:11.539Z,5.37
2019-03-24T02:27:40.901Z,4.27
2019-03-24T02:30:11.438Z,4.53
2019-03-24T02:32:40.817Z,4.47
2019-03-24T02:35:10.549Z,5.10
2019-03-24T02:37:40.072Z,4.90
2019-03-24T02:40:09.935Z,6.00
2019-03-24T02:42:39.347Z,5.63
2019-03-24T02:45:09.351Z,4.50
2019-03-24T02:47:38.802Z,5.97
2019-03-24T02:50:09.122Z,4.73
2019-03-24T02:52:38.578Z,5.20
2019-03-24T02:55:08.934Z,5.40
2019-03-24T02:57:38.367Z,5.30
2019-03-24T03:00:10.023Z,5.30
2019-03-24T03:02:39.939Z,6.40
2019-03-24T03:05:10.305Z,5.43
2019-03-24T03:07:40.522Z,5.73
2019-03-24T03:10:11.849Z,5.33
2019-03-24T03:12:41.353Z,6.17
2019-03-24T03:15:12.276Z,4.80
2019-03-24T03:17:41.781Z,5.43
2019-03-24T03:20:12.062Z,5.50
2019-03-24T03:22:41.455Z,5.40
2019-03-24T03:25:11.784Z,5.67
2019-03-24T03:27:41.293Z,4.90
2019-03-24T03:30:11.579Z,4.80
2019-03-24T03:32:40.941Z,5.60
2019-03-24T03:35:11.459Z,5.50
2019-03-24T03:37:41.271Z,5.60
2019-03-24T03:40:11.607Z,4.90
2019-03-24T03:42:41.264Z,5.03
2019-03-24T03:45:12.738Z,5.30
2019-03-24T03:47:42.157Z,7.80
2019-03-24T03:50:11.718Z,5.00
2019-03-24T03:52:41.213Z,5.73
2019-03-24T03:55:11.132Z,5.20
2019-03-24T03:57:40.554Z,5.70
2019-03-24T04:00:10.890Z,7.40
2019-03-24T04:02:40.342Z,5.40
2019-03-24T04:05:10.206Z,4.60
2019-03-24T04:07:39.597Z,5.70
2019-03-24T04:10:09.694Z,5.60
2019-03-24T04:12:39.054Z,4.80
2019-03-24T04:15:08.941Z,4.90
2019-03-24T04:17:38.365Z,6.20
2019-03-24T04:20:07.996Z,5.57
2019-03-24T04:22:37.377Z,4.63
2019-03-24T04:25:07.377Z,6.00
2019-03-24T04:27:36.771Z,5.70
2019-03-24T04:30:07.165Z,4.27
2019-03-24T04:32:36.625Z,4.90
2019-03-24T04:35:06.209Z,5.67
2019-03-24T04:37:35.866Z,5.50
2019-03-24T04:40:06.527Z,5.33
2019-03-24T04:42:35.994Z,6.30
2019-03-24T04:45:06.294Z,5.40
2019-03-24T04:47:35.612Z,6.17
2019-03-24T04:50:06.154Z,4.97
2019-03-24T04:52:35.506Z,5.70
2019-03-24T04:55:05.522Z,5.57
2019-03-24T04:57:35.026Z,5.20
2019-03-24T05:00:05.213Z,5.57
2019-03-24T05:02:34.750Z,6.00
2019-03-24T05:05:04.181Z,5.33
2019-03-24T05:07:33.794Z,6.50
2019-03-24T05:10:03.834Z,5.03
2019-03-24T05:12:33.247Z,6.50
2019-03-24T05:15:02.693Z,5.30
2019-03-24T05:17:32.387Z,5.80
2019-03-24T05:20:01.838Z,5.37
2019-03-24T05:22:31.267Z,5.60
2019-03-24T05:25:00.644Z,5.57
2019-03-24T05:27:30.106Z,5.13
2019-03-24T05:29:59.425Z,5.10
2019-03-24T05:32:28.914Z,5.07
2019-03-24T05:34:58.259Z,5.93
2019-03-24T05:37:27.618Z,4.87
2019-03-24T05:39:56.977Z,4.93
2019-03-24T05:42:26.325Z,5.27
2019-03-24T05:44:55.698Z,4.60
2019-03-24T05:47:25.034Z,5.70
2019-03-24T05:49:54.409Z,5.30
2019-03-24T05:52:23.869Z,5.73
2019-03-24T05:54:53.250Z,5.37
2019-03-24T05:57:22.800Z,5.80
2019-03-24T05:59:52.222Z,5.10
2019-03-24T06:02:21.888Z,5.63
2019-03-24T06:04:51.250Z,5.40
2019-03-24T06:07:20.886Z,7.00
2019-03-24T06:09:50.336Z,5.90
2019-03-24T06:12:19.681Z,5.20
2019-03-24T06:14:49.045Z,5.60
2019-03-24T06:17:18.394Z,6.10
2019-03-24T06:19:47.813Z,4.40
2019-03-24T06:22:17.257Z,5.73
2019-03-24T06:24:46.632Z,5.40
2019-03-24T06:27:16.009Z,6.10
2019-03-24T06:29:45.434Z,5.60
2019-03-24T06:32:14.797Z,5.80
2019-03-24T06:34:44.161Z,5.93
2019-03-24T06:37:13.601Z,5.57
2019-03-24T06:39:43.051Z,5.00
2019-03-24T06:42:12.490Z,5.00
2019-03-24T06:44:41.912Z,5.20
2019-03-24T06:47:11.337Z,5.30
2019-03-24T06:49:40.831Z,6.37
2019-03-24T06:52:10.262Z,6.67
2019-03-24T06:54:39.609Z,6.37
2019-03-24T06:57:08.989Z,5.57
2019-03-24T06:59:38.536Z,4.80
2019-03-24T07:02:07.901Z,5.47
2019-03-24T07:04:37.269Z,6.00
2019-03-24T07:07:06.771Z,6.60
2019-03-24T07:09:36.145Z,5.93
2019-03-24T07:12:05.690Z,6.70
2019-03-24T07:14:35.040Z,6.40
2019-03-24T07:17:04.562Z,6.10
2019-03-24T07:19:34.047Z,5.97
2019-03-24T07:22:03.427Z,6.63
2019-03-24T07:24:32.893Z,6.97
2019-03-24T07:27:02.345Z,6.20
2019-03-24T07:29:31.809Z,5.70
2019-03-24T07:32:01.179Z,6.40
2019-03-24T07:34:30.583Z,5.73
2019-03-24T07:36:59.997Z,6.47
2019-03-24T07:39:29.653Z,5.60
2019-03-24T07:41:59.555Z,5.40
2019-03-24T07:44:28.926Z,5.10
2019-03-24T07:46:58.298Z,5.60
2019-03-24T07:49:27.709Z,5.53
2019-03-24T07:51:57.079Z,5.67
2019-03-24T07:54:26.430Z,5.20
2019-03-24T07:56:55.782Z,5.23
2019-03-24T07:59:25.146Z,5.13
2019-03-24T08:01:54.649Z,4.73
2019-03-24T08:04:24.062Z,4.53
2019-03-24T08:06:53.793Z,4.80
2019-03-24T08:09:23.358Z,4.40
2019-03-24T08:11:52.815Z,5.13
2019-03-24T08:14:22.165Z,4.47
2019-03-24T08:16:51.538Z,5.13
2019-03-24T08:19:20.919Z,4.77
2019-03-24T08:21:50.286Z,4.20
2019-03-24T08:24:19.729Z,4.67
2019-03-24T08:26:49.131Z,4.60
2019-03-24T08:29:18.630Z,5.17
2019-03-24T08:31:48.009Z,4.20
2019-03-24T08:34:17.388Z,5.10
2019-03-24T08:36:46.810Z,5.27
2019-03-24T08:39:16.241Z,4.87
2019-03-24T08:41:45.866Z,4.60
2019-03-24T08:44:15.341Z,4.40
2019-03-24T08:46:47.085Z,5.03
2019-03-24T08:49:15.782Z,5.23
2019-03-24T08:51:45.146Z,5.30
2019-03-24T08:54:14.719Z,4.50
2019-03-24T08:56:44.070Z,4.50
2019-03-24T08:59:13.617Z,4.33
2019-03-24T09:01:43.015Z,4.43
2019-03-24T09:04:12.368Z,4.70
2019-03-24T09:06:41.805Z,4.40
2019-03-24T09:09:11.312Z,4.87
2019-03-24T09:11:40.714Z,4.60
2019-03-24T09:14:10.083Z,5.00
2019-03-24T09:16:39.528Z,4.13
2019-03-24T09:19:08.881Z,4.20
2019-03-24T09:21:38.227Z,5.77
2019-03-24T09:24:07.740Z,3.83
2019-03-24T09:26:37.144Z,4.17
2019-03-24T09:29:06.621Z,4.50
2019-03-24T09:31:36.024Z,4.63
2019-03-24T09:34:05.573Z,4.40
2019-03-24T09:36:34.917Z,4.97
2019-03-24T09:39:05.898Z,4.77
2019-03-24T09:41:35.371Z,5.00
2019-03-24T09:44:04.880Z,5.43
2019-03-24T09:46:34.365Z,4.67
2019-03-24T09:49:03.826Z,4.73
2019-03-24T09:51:33.229Z,4.07
2019-03-24T09:54:02.734Z,5.00
2019-03-24T09:56:32.086Z,4.93
2019-03-24T09:59:01.525Z,4.60
2019-03-24T10:01:30.901Z,5.10
2019-03-24T10:04:00.266Z,4.93
2019-03-24T10:06:29.733Z,4.90
2019-03-24T10:08:59.155Z,4.27
2019-03-24T10:11:28.526Z,4.40
2019-03-24T10:13:57.920Z,5.07
2019-03-24T10:16:27.273Z,4.40
2019-03-24T10:18:56.809Z,3.83
2019-03-24T10:21:26.365Z,5.10
2019-03-24T10:23:55.892Z,4.40
2019-03-24T10:26:25.350Z,4.60
2019-03-24T10:28:54.827Z,4.53
2019-03-24T10:31:24.463Z,3.53
2019-03-24T10:33:53.827Z,3.90
2019-03-24T10:36:23.291Z,5.27
2019-03-24T10:38:52.882Z,4.27
2019-03-24T10:41:22.447Z,4.50
2019-03-24T10:43:51.789Z,4.03
2019-03-24T10:46:21.226Z,4.33
2019-03-24T10:48:50.738Z,4.83
2019-03-24T10:51:20.209Z,4.20
2019-03-24T10:53:49.779Z,4.80
2019-03-24T10:56:19.137Z,3.83
2019-03-24T10:58:48.592Z,5.57
2019-03-24T11:01:17.986Z,4.50
2019-03-24T11:03:47.366Z,4.10
2019-03-24T11:06:16.857Z,4.87
2019-03-24T11:08:46.355Z,5.57
2019-03-24T11:11:15.790Z,4.20
2019-03-24T11:13:45.345Z,6.43
2019-03-24T11:16:14.816Z,4.77
2019-03-24T11:18:44.206Z,5.17
2019-03-24T11:21:13.713Z,4.40
2019-03-24T11:23:43.059Z,4.93
2019-03-24T11:26:12.520Z,4.83
2019-03-24T11:28:42.037Z,4.30
2019-03-24T11:31:12.358Z,4.30
2019-03-24T11:33:41.822Z,4.23
2019-03-24T11:36:11.165Z,3.70
2019-03-24T11:38:40.621Z,4.50
2019-03-24T11:41:09.982Z,4.27
2019-03-24T11:43:39.429Z,4.67
2019-03-24T11:46:08.966Z,4.70
2019-03-24T11:48:38.372Z,4.43
2019-03-24T11:51:08.027Z,4.57
2019-03-24T11:53:37.380Z,4.50
2019-03-24T11:56:06.947Z,4.23
2019-03-24T11:58:36.365Z,3.50
2019-03-24T12:01:05.982Z,4.50
2019-03-24T12:03:35.394Z,4.13
2019-03-24T12:06:13.900Z,3.10
2019-03-24T12:08:38.714Z,4.17
2019-03-24T12:11:07.400Z,3.63
2019-03-24T12:13:36.912Z,3.63
2019-03-24T12:16:06.428Z,3.70
2019-03-24T12:18:35.808Z,5.23
2019-03-24T12:21:05.270Z,3.47
2019-03-24T12:23:34.861Z,4.00
2019-03-24T12:26:04.326Z,2.70
2019-03-24T12:28:33.845Z,3.47
2019-03-24T12:31:03.379Z,3.43
2019-03-24T12:33:32.745Z,4.40
2019-03-24T12:36:02.134Z,4.47
2019-03-24T12:38:31.553Z,3.80
2019-03-24T12:41:00.979Z,3.20
2019-03-24T12:43:30.390Z,4.00
2019-03-24T12:45:59.895Z,3.70
2019-03-24T12:48:29.345Z,4.10
2019-03-24T12:50:59.329Z,3.90
2019-03-24T12:53:28.745Z,2.83
2019-03-24T12:55:58.226Z,2.60
2019-03-24T12:58:27.570Z,3.23
2019-03-24T13:00:57.171Z,2.50
2019-03-24T13:03:27.211Z,2.40
2019-03-24T13:06:00.553Z,4.27
2019-03-24T13:08:30.049Z,4.33
2019-03-24T13:10:59.514Z,3.43
2019-03-24T13:13:29.073Z,2.80
2019-03-24T13:15:58.511Z,3.20
2019-03-24T13:18:31.135Z,3.20
2019-03-24T13:21:00.593Z,3.00
2019-03-24T13:23:29.938Z,2.97
2019-03-24T13:25:59.318Z,3.00
2019-03-24T13:28:28.762Z,3.30
2019-03-24T13:30:58.282Z,3.40
2019-03-24T13:33:27.741Z,2.40
2019-03-24T13:36:11.154Z,3.00
2019-03-24T13:38:40.637Z,3.80
2019-03-24T13:41:10.253Z,2.53
2019-03-24T13:43:39.994Z,2.90
2019-03-24T13:46:09.424Z,2.70
2019-03-24T13:48:38.954Z,3.23
2019-03-24T13:51:08.667Z,2.93
2019-03-24T13:53:38.251Z,3.93
2019-03-24T13:56:07.937Z,3.87
2019-03-24T13:58:37.517Z,4.50
2019-03-24T14:01:09.522Z,2.57
2019-03-24T14:03:38.959Z,2.70
2019-03-24T14:06:08.464Z,2.87
2019-03-24T14:08:38.073Z,3.27
2019-03-24T14:11:07.541Z,2.40
2019-03-24T14:13:36.889Z,3.33
2019-03-24T14:16:06.446Z,2.87
2019-03-24T14:18:35.813Z,2.43
2019-03-24T14:21:05.317Z,2.80
2019-03-24T14:23:34.682Z,2.10
2019-03-24T14:26:04.250Z,2.07
2019-03-24T14:28:33.887Z,2.70
2019-03-24T14:31:03.677Z,1.93
2019-03-24T14:33:33.074Z,2.73
2019-03-24T14:36:02.504Z,2.70
2019-03-24T14:38:31.863Z,3.03
2019-03-24T14:41:01.247Z,2.43
2019-03-24T14:43:30.714Z,2.90
2019-03-24T14:46:00.284Z,2.60
2019-03-24T14:48:30.083Z,3.20
2019-03-24T14:50:59.483Z,2.80
2019-03-24T14:53:28.970Z,2.63
2019-03-24T14:55:58.471Z,2.50
2019-03-24T14:58:28.102Z,2.93
2019-03-24T15:00:57.665Z,3.53
2019-03-24T15:03:27.242Z,2.93
2019-03-24T15:05:56.722Z,2.80
2019-03-24T15:08:26.159Z,3.63
2019-03-24T15:10:55.500Z,3.40
2019-03-24T15:13:24.884Z,3.67
2019-03-24T15:15:54.501Z,3.53
2019-03-24T15:18:24.256Z,2.87
2019-03-24T15:21:04.906Z,2.93
2019-03-24T15:23:24.729Z,2.67
2019-03-24T15:25:54.315Z,3.43
2019-03-24T15:28:23.856Z,3.50
2019-03-24T15:30:53.637Z,3.30
2019-03-24T15:33:23.217Z,3.00
2019-03-24T15:35:52.769Z,3.53
2019-03-24T15:38:22.249Z,3.47
2019-03-24T15:40:51.689Z,3.10
2019-03-24T15:43:21.272Z,3.90
2019-03-24T15:45:50.895Z,2.70
2019-03-24T15:48:20.374Z,3.43
2019-03-24T15:50:50.107Z,4.20
2019-03-24T15:53:19.629Z,3.60
2019-03-24T15:55:49.022Z,3.73
2019-03-24T15:58:18.375Z,3.63
2019-03-24T16:00:52.792Z,2.80
2019-03-24T16:03:22.232Z,3.73
2019-03-24T16:05:51.674Z,4.47
2019-03-24T16:08:21.258Z,4.87
2019-03-24T16:10:50.786Z,3.00
2019-03-24T16:13:20.261Z,3.33
2019-03-24T16:15:49.692Z,3.80
2019-03-24T16:18:19.072Z,2.87
2019-03-24T16:20:48.501Z,3.27
2019-03-24T16:23:17.956Z,2.80
2019-03-24T16:25:47.522Z,4.20
2019-03-24T16:28:16.891Z,2.87
2019-03-24T16:30:46.276Z,3.63
2019-03-24T16:33:15.698Z,3.63
2019-03-24T16:35:45.121Z,3.63
2019-03-24T16:38:14.613Z,3.10
2019-03-24T16:40:44.037Z,2.87
2019-03-24T16:43:13.470Z,3.40
2019-03-24T16:45:43.102Z,4.30
2019-03-24T16:48:12.679Z,4.20
2019-03-24T16:50:42.049Z,3.33
2019-03-24T16:53:11.500Z,2.67
2019-03-24T16:55:40.947Z,3.60
2019-03-24T16:58:10.314Z,3.53
2019-03-24T17:00:39.823Z,3.80
2019-03-24T17:03:09.386Z,3.07
2019-03-24T17:05:38.930Z,3.63
2019-03-24T17:08:08.418Z,4.10
2019-03-24T17:10:37.926Z,4.30
2019-03-24T17:13:07.490Z,3.93
2019-03-24T17:15:37.157Z,4.70
2019-03-24T17:18:07.177Z,2.73
2019-03-24T17:20:36.658Z,3.73
2019-03-24T17:23:06.347Z,2.97
2019-03-24T17:25:35.782Z,3.63
2019-03-24T17:28:05.451Z,3.20
2019-03-24T17:30:35.028Z,3.53
2019-03-24T17:33:04.671Z,4.23
2019-03-24T17:35:34.137Z,3.50
2019-03-24T17:38:03.663Z,3.27
2019-03-24T17:40:52.058Z,2.80
2019-03-24T17:43:21.581Z,3.30
2019-03-24T17:45:51.056Z,4.73
2019-03-24T17:48:20.566Z,3.50
2019-03-24T17:50:50.096Z,2.97
2019-03-24T17:53:19.574Z,3.40
2019-03-24T17:55:48.936Z,3.90
2019-03-24T17:58:18.305Z,3.40
2019-03-24T18:00:49.650Z,4.63
2019-03-24T18:03:19.112Z,4.40
2019-03-24T18:05:48.610Z,3.93
2019-03-24T18:08:18.080Z,3.87
2019-03-24T18:10:47.646Z,3.67
2019-03-24T18:13:17.033Z,4.20
2019-03-24T18:15:46.753Z,4.90
2019-03-24T18:18:16.311Z,4.90
2019-03-24T18:20:45.763Z,5.70
2019-03-24T18:23:15.177Z,5.03
2019-03-24T18:25:44.676Z,5.27
2019-03-24T18:28:14.117Z,3.97
2019-03-24T18:30:43.638Z,5.60
2019-03-24T18:33:14.200Z,5.57
2019-03-24T18:35:43.787Z,4.90
2019-03-24T18:38:13.243Z,4.20
2019-03-24T18:40:42.778Z,3.60
2019-03-24T18:43:12.177Z,3.97
2019-03-24T18:45:41.716Z,4.63
2019-03-24T18:48:11.266Z,3.70
2019-03-24T18:50:40.721Z,4.43
2019-03-24T18:53:10.263Z,3.70
2019-03-24T18:55:39.683Z,4.40
2019-03-24T18:58:09.062Z,3.63
2019-03-24T19:00:38.467Z,4.63
2019-03-24T19:03:07.915Z,3.77
2019-03-24T19:05:37.570Z,3.57
2019-03-24T19:08:06.965Z,3.30
2019-03-24T19:10:36.580Z,4.63
2019-03-24T19:13:06.093Z,3.40
2019-03-24T19:15:37.416Z,5.00
2019-03-24T19:18:06.778Z,2.90
2019-03-24T19:20:36.146Z,2.80
2019-03-24T19:23:05.615Z,2.77
2019-03-24T19:25:35.080Z,4.37
2019-03-24T19:28:04.664Z,2.60
2019-03-24T19:30:39.587Z,4.67
2019-03-24T19:33:09.597Z,3.27
2019-03-24T19:35:39.563Z,3.37
2019-03-24T19:38:09.163Z,4.70
2019-03-24T19:40:38.823Z,4.77
2019-03-24T19:43:08.388Z,4.10
2019-03-24T19:45:37.751Z,5.13
2019-03-24T19:48:07.250Z,3.97
2019-03-24T19:50:36.770Z,4.00
2019-03-24T19:53:06.422Z,3.53
2019-03-24T19:55:36.146Z,3.90
2019-03-24T19:58:05.623Z,3.30
2019-03-24T20:00:35.010Z,3.70
2019-03-24T20:03:04.542Z,3.57
2019-03-24T20:05:34.010Z,3.80
2019-03-24T20:08:03.540Z,4.10
2019-03-24T20:10:32.993Z,3.43
2019-03-24T20:13:02.369Z,3.50
2019-03-24T20:15:32.003Z,3.43
2019-03-24T20:18:01.431Z,3.70
2019-03-24T20:20:30.841Z,3.63
2019-03-24T20:23:00.413Z,4.03
2019-03-24T20:25:29.923Z,5.00
2019-03-24T20:27:59.649Z,4.20
2019-03-24T20:30:29.410Z,4.57
2019-03-24T20:32:58.861Z,3.80
2019-03-24T20:35:28.620Z,4.00
2019-03-24T20:37:57.998Z,3.50
2019-03-24T20:40:27.576Z,3.70
2019-03-24T20:42:56.980Z,3.60
2019-03-24T20:45:26.464Z,3.80
2019-03-24T20:47:55.929Z,4.03
2019-03-24T20:50:25.469Z,3.47
2019-03-24T20:53:03.629Z,3.67
2019-03-24T20:55:26.125Z,3.33
2019-03-24T20:57:55.561Z,3.17
2019-03-24T21:00:33.377Z,3.67
2019-03-24T21:03:02.869Z,3.20
2019-03-24T21:05:32.612Z,2.90
2019-03-24T21:08:02.254Z,4.07
2019-03-24T21:10:31.788Z,3.30
2019-03-24T21:13:01.254Z,2.83
2019-03-24T21:15:30.685Z,3.10
2019-03-24T21:18:00.131Z,3.20
2019-03-24T21:20:29.500Z,3.27
2019-03-24T21:22:59.162Z,3.30
2019-03-24T21:25:31.017Z,2.97
2019-03-24T21:28:00.581Z,3.20
2019-03-24T21:30:34.945Z,3.17
2019-03-24T21:33:04.874Z,3.80
2019-03-24T21:35:34.326Z,3.20
2019-03-24T21:38:04.010Z,3.63
2019-03-24T21:40:33.417Z,2.90
2019-03-24T21:43:02.774Z,3.93
2019-03-24T21:45:32.569Z,3.30
2019-03-24T21:48:02.015Z,2.63
2019-03-24T21:50:31.534Z,3.70
2019-03-24T21:53:00.938Z,3.63
2019-03-24T21:55:30.332Z,2.90
2019-03-24T21:57:59.747Z,3.10
2019-03-24T22:00:33.732Z,2.90
2019-03-24T22:03:03.229Z,3.73
2019-03-24T22:05:33.080Z,3.63
2019-03-24T22:08:02.725Z,2.73
2019-03-24T22:10:32.336Z,3.13
2019-03-24T22:13:01.781Z,3.33
2019-03-24T22:15:31.281Z,4.13
2019-03-24T22:18:00.752Z,2.93
2019-03-24T22:20:30.124Z,3.30
2019-03-24T22:22:59.572Z,2.27
2019-03-24T22:25:29.031Z,3.13
2019-03-24T22:27:58.426Z,2.27
2019-03-24T22:30:29.335Z,2.83
2019-03-24T22:32:59.107Z,3.00
2019-03-24T22:35:28.569Z,2.90
2019-03-24T22:37:57.920Z,2.43
2019-03-24T22:40:27.361Z,2.90
2019-03-24T22:42:56.827Z,2.80
2019-03-24T22:45:26.451Z,3.53
2019-03-24T22:47:56.047Z,4.30
2019-03-24T22:50:25.449Z,3.50
2019-03-24T22:52:54.876Z,2.80
2019-03-24T22:55:24.470Z,3.23
2019-03-24T22:57:54.004Z,3.43
2019-03-24T23:00:44.058Z,3.00
2019-03-24T23:03:13.427Z,4.13
2019-03-24T23:05:42.965Z,4.90
2019-03-24T23:08:12.603Z,4.03
2019-03-24T23:10:42.073Z,3.57
2019-03-24T23:13:11.529Z,4.37
2019-03-24T23:15:41.052Z,3.57
2019-03-24T23:18:10.564Z,4.53
2019-03-24T23:20:40.094Z,4.47
2019-03-24T23:23:09.514Z,4.57
2019-03-24T23:25:38.954Z,3.90
2019-03-24T23:28:08.427Z,4.00
2019-03-24T23:30:37.813Z,5.50
2019-03-24T23:33:07.353Z,4.37
2019-03-24T23:35:36.722Z,5.03
2019-03-24T23:38:06.254Z,5.17
2019-03-24T23:40:35.707Z,5.60
2019-03-24T23:43:05.197Z,4.50
2019-03-24T23:45:34.652Z,4.90
2019-03-24T23:48:04.277Z,4.30
2019-03-24T23:50:33.786Z,5.40
2019-03-24T23:53:03.223Z,4.40
2019-03-24T23:55:32.784Z,4.50
2019-03-24T23:58:02.119Z,3.53
